Time;durP1;ratioP1;P1;durP2;ratioP2;P2;SDS_P1;SDS_P2;PMS_P1;PMS_P2;Temp;Humidity;BMP_temperature;BMP_pressure;BME280_temperature;BME280_humidity;BME280_pressure;Samples;Min_cycle;Max_cycle;Signal;HPM_P1;HPM_P2
2022/01/27 00:05:14;;;;;;;31.13;22.30;;;;;;;-0.29;77.95;99960.53;4098087;28;20214;-86
2022/01/27 00:07:15;;;;;;;38.90;24.93;;;;;;;-0.33;78.31;99961.81;4100253;28;20203;-85
2022/01/27 00:09:41;;;;;;;47.40;24.30;;;;;;;-0.28;78.35;99967.63;4081656;28;20586;-87
2022/01/27 00:11:46;;;;;;;37.67;24.27;;;;;;;-0.17;78.29;99960.22;4143410;28;20275;-85
2022/01/27 00:13:59;;;;;;;40.43;26.93;;;;;;;-0.08;78.20;99974.63;4128728;28;20237;-88
2022/01/27 00:16:19;;;;;;;38.67;24.07;;;;;;;0.01;78.13;99969.22;4127929;28;20285;-86
2022/01/27 00:18:21;;;;;;;35.97;22.73;;;;;;;-0.07;77.63;99964.56;4113599;28;20214;-86
2022/01/27 00:20:22;;;;;;;33.57;23.83;;;;;;;0.02;77.77;99965.50;4106722;28;20203;-86
2022/01/27 00:22:27;;;;;;;39.13;23.30;;;;;;;-0.04;77.69;99972.31;4124234;28;20213;-86
2022/01/27 00:24:29;;;;;;;43.93;25.70;;;;;;;0.00;77.43;99962.97;4123961;28;20218;-84
2022/01/27 00:26:33;;;;;;;36.70;22.60;;;;;;;0.11;77.35;99954.72;4123476;28;20198;-86
2022/01/27 00:28:35;;;;;;;38.67;24.43;;;;;;;0.02;77.17;99949.38;4113611;28;20217;-86
2022/01/27 00:30:39;;;;;;;32.77;25.23;;;;;;;-0.07;77.31;99945.72;4121888;28;20214;-85
2022/01/27 00:32:40;;;;;;;28.07;21.43;;;;;;;0.02;77.14;99944.81;4140228;28;20265;-85
2022/01/27 00:34:41;;;;;;;33.57;23.40;;;;;;;-0.20;78.09;99954.28;4124731;28;20242;-86
2022/01/27 00:36:43;;;;;;;37.47;24.17;;;;;;;-0.27;78.17;99951.31;4108174;28;20217;-85
2022/01/27 00:38:45;;;;;;;42.67;21.07;;;;;;;-0.27;78.00;99966.63;4128958;28;20218;-84
2022/01/27 00:40:56;;;;;;;;;;;;;;;;;;;;;
2022/01/27 00:42:58;;;;;;;39.83;25.17;;;;;;;-0.21;78.03;99945.34;4125845;28;20241;-87
2022/01/27 00:45:00;;;;;;;44.73;24.93;;;;;;;-0.12;77.89;99957.94;4125358;28;20210;-85
2022/01/27 00:47:03;;;;;;;41.83;26.57;;;;;;;-0.14;77.91;99948.31;4144563;28;20264;-86
2022/01/27 00:49:05;;;;;;;50.63;26.70;;;;;;;-0.21;77.60;99952.59;4113161;28;20728;-84
2022/01/27 00:51:22;;;;;;;34.83;23.77;;;;;;;-0.19;77.85;99951.44;4135604;28;20264;-85
2022/01/27 00:55:40;;;;;;;40.50;23.73;;;;;;;-0.14;77.65;99943.75;4123693;28;20198;-86
2022/01/27 00:59:58;;;;;;;34.90;24.07;;;;;;;-0.19;77.74;99946.06;4126156;28;20198;-85
2022/01/27 01:04:11;;;;;;;42.57;25.40;;;;;;;-0.14;78.06;99953.69;4123821;28;20781;-85
2022/01/27 01:06:24;;;;;;;37.20;25.03;;;;;;;-0.23;77.87;99941.97;4108091;28;20306;-86
2022/01/27 01:14:59;;;;;;;43.73;25.30;;;;;;;-0.15;77.96;99941.25;4123243;28;20218;-85
2022/01/27 01:31:16;;;;;;;48.17;25.67;;;;;;;-0.20;78.05;99940.81;4124235;28;20229;-86
2022/01/27 01:33:23;;;;;;;50.07;27.87;;;;;;;-0.16;77.96;99944.94;4140055;28;20257;-86
2022/01/27 01:35:35;;;;;;;49.00;26.23;;;;;;;-0.20;78.11;99940.81;4110978;28;20203;-86
2022/01/27 01:37:40;;;;;;;38.80;24.40;;;;;;;-0.09;77.50;99946.03;4125363;28;20201;-86
2022/01/27 01:39:42;;;;;;;46.63;26.00;;;;;;;-0.12;77.77;99939.94;4114340;28;20234;-86
2022/01/27 01:41:43;;;;;;;30.37;20.20;;;;;;;-0.18;78.15;99933.44;4123662;28;20222;-86
2022/01/27 01:43:45;;;;;;;37.53;22.80;;;;;;;-0.21;78.05;99925.69;4113131;28;20685;-85
2022/01/27 01:45:48;;;;;;;34.37;23.67;;;;;;;-0.19;78.01;99942.53;4130907;28;20198;-86
2022/01/27 01:47:51;;;;;;;39.43;23.53;;;;;;;-0.14;77.79;99937.56;4122095;28;20290;-85
2022/01/27 01:49:53;;;;;;;44.57;26.70;;;;;;;-0.17;77.86;99943.22;4140720;28;20299;-85
2022/01/27 01:51:56;;;;;;;45.60;25.37;;;;;;;-0.24;78.24;99936.72;4104805;28;20236;-86
2022/01/27 01:53:59;;;;;;;37.57;22.23;;;;;;;-0.23;78.11;99938.41;4115689;28;20231;-85
2022/01/27 01:56:00;;;;;;;42.50;24.67;;;;;;;-0.18;77.60;99941.53;4113132;28;20203;-85
2022/01/27 01:58:02;;;;;;;50.03;26.43;;;;;;;-0.20;77.72;99943.53;4132526;28;20210;-87
2022/01/27 02:00:08;;;;;;;34.97;21.83;;;;;;;-0.17;77.88;99943.22;4150472;28;20470;-86
2022/01/27 02:02:12;;;;;;;36.20;24.33;;;;;;;-0.28;77.84;99929.97;4148116;28;20226;-86
2022/01/27 02:04:14;;;;;;;26.37;19.53;;;;;;;-0.25;77.83;99937.72;4130467;28;20211;-88
2022/01/27 02:06:28;;;;;;;36.60;24.00;;;;;;;-0.22;77.79;99945.50;4144190;28;20228;-85
2022/01/27 02:08:39;;;;;;;41.13;23.10;;;;;;;-0.23;78.05;99938.41;4144648;28;20194;-86
2022/01/27 02:18:01;;;;;;;42.53;24.47;;;;;;;-0.25;77.85;99940.41;4146090;28;20186;-89
2022/01/27 02:20:07;;;;;;;33.47;22.47;;;;;;;-0.21;77.75;99937.28;4157544;28;20173;-86
2022/01/27 02:22:08;;;;;;;36.37;24.30;;;;;;;-0.27;77.92;99950.47;4134481;28;20272;-83
2022/01/27 02:24:10;;;;;;;37.60;24.70;;;;;;;-0.25;77.94;99954.72;4133654;28;20205;-90
2022/01/27 02:26:11;;;;;;;40.47;24.40;;;;;;;-0.26;77.82;99944.09;4158879;28;20224;-87
2022/01/27 02:28:13;;;;;;;37.23;22.27;;;;;;;-0.33;78.19;99943.00;4131214;28;20202;-85
2022/01/27 02:30:14;;;;;;;31.63;22.13;;;;;;;-0.35;78.19;99945.00;4135545;28;20265;-87
2022/01/27 02:32:24;;;;;;;31.67;22.27;;;;;;;-0.37;78.57;99936.22;4139786;28;20229;-84
2022/01/27 02:34:29;;;;;;;38.23;21.73;;;;;;;-0.39;78.66;99927.44;4112709;28;20206;-85
2022/01/27 02:36:31;;;;;;;38.47;22.93;;;;;;;-0.42;78.60;99933.13;4108315;28;20304;-86
2022/01/27 02:38:33;;;;;;;36.53;21.93;;;;;;;-0.51;78.56;99934.00;4114621;28;20222;-84
2022/01/27 02:40:37;;;;;;;42.00;24.40;;;;;;;-0.53;78.77;99930.59;4127404;28;20228;-86
2022/01/27 02:42:38;;;;;;;31.67;22.70;;;;;;;-0.44;78.50;99919.84;4125253;28;20722;-86
2022/01/27 02:44:46;;;;;;;34.57;23.67;;;;;;;-0.43;78.72;99909.91;4124971;28;20221;-86
2022/01/27 02:46:49;;;;;;;44.67;25.27;;;;;;;-0.44;78.89;99897.47;4124701;28;20203;-86
2022/01/27 02:48:51;;;;;;;45.83;22.83;;;;;;;-0.31;78.76;99896.16;4108202;28;20211;-85
2022/01/27 02:50:53;;;;;;;46.07;22.93;;;;;;;-0.45;78.87;99898.47;4111350;28;20630;-86
2022/01/27 02:52:54;;;;;;;40.13;22.60;;;;;;;-0.40;78.56;99898.88;4126870;28;20692;-85
2022/01/27 02:54:56;;;;;;;39.17;25.80;;;;;;;-0.46;78.83;99876.13;4141089;28;20205;-86
2022/01/27 02:56:57;;;;;;;38.37;24.33;;;;;;;-0.37;78.54;99871.69;4123686;28;20208;-85
2022/01/27 02:58:59;;;;;;;30.13;20.43;;;;;;;-0.42;78.49;99879.38;4108223;28;20237;-85
2022/01/27 03:01:00;;;;;;;32.53;23.40;;;;;;;-0.45;79.11;99882.34;4111376;28;20221;-84
2022/01/27 03:03:04;;;;;;;39.87;24.47;;;;;;;-0.47;78.73;99877.09;4113814;28;20667;-85
2022/01/27 03:05:06;;;;;;;32.20;19.90;;;;;;;-0.43;79.04;99877.66;4128209;28;20725;-85
2022/01/27 03:07:08;;;;;;;37.67;23.07;;;;;;;-0.39;79.00;99879.06;4126986;28;20210;-85
2022/01/27 03:09:10;;;;;;;32.97;20.80;;;;;;;-0.39;78.89;99871.00;4114313;28;20203;-85
2022/01/27 03:11:13;;;;;;;37.03;23.53;;;;;;;-0.37;78.70;99869.00;4142811;28;20229;-84
2022/01/27 03:13:15;;;;;;;29.20;21.17;;;;;;;-0.30;78.38;99867.41;4141969;28;20287;-85
2022/01/27 03:15:19;;;;;;;40.27;23.63;;;;;;;-0.36;78.55;99870.72;4107539;28;20711;-85
2022/01/27 03:17:20;;;;;;;46.67;23.00;;;;;;;-0.33;78.29;99856.97;4137929;28;20210;-86
2022/01/27 03:19:22;;;;;;;39.97;23.23;;;;;;;-0.42;78.76;99857.84;4129288;28;20221;-84
2022/01/27 03:21:24;;;;;;;42.47;22.83;;;;;;;-0.41;78.66;99854.19;4123470;28;20289;-85
2022/01/27 03:23:33;;;;;;;43.13;25.73;;;;;;;-0.35;78.71;99858.97;4108200;28;20214;-85
2022/01/27 03:25:34;;;;;;;45.13;24.07;;;;;;;-0.25;78.40;99865.13;4127119;28;20202;-85
2022/01/27 03:27:36;;;;;;;36.97;23.33;;;;;;;-0.38;78.85;99864.63;4114310;28;20237;-84
2022/01/27 03:29:37;;;;;;;32.67;23.87;;;;;;;-0.47;78.71;99865.50;4147591;28;20237;-85
2022/01/27 03:31:39;;;;;;;40.63;21.60;;;;;;;-0.47;78.82;99857.44;4127542;28;20854;-85
2022/01/27 03:33:41;;;;;;;37.47;21.63;;;;;;;-0.48;78.94;99855.75;4138445;28;20205;-85
2022/01/27 03:35:43;;;;;;;39.20;23.33;;;;;;;-0.57;79.36;99864.69;4140599;28;20293;-86
2022/01/27 03:37:44;;;;;;;44.93;26.03;;;;;;;-0.54;79.39;99859.03;4141410;28;20209;-85
2022/01/27 03:39:46;;;;;;;39.57;22.53;;;;;;;-0.51;79.55;99864.97;4126256;28;20210;-84
2022/01/27 03:41:51;;;;;;;43.87;24.00;;;;;;;-0.43;79.08;99866.91;4114590;28;20231;-86
2022/01/27 03:43:55;;;;;;;40.00;22.43;;;;;;;-0.56;79.39;99855.66;4129218;28;20281;-86
2022/01/27 03:45:57;;;;;;;40.73;24.97;;;;;;;-0.55;79.65;99857.34;4113737;28;20856;-83
2022/01/27 03:47:59;;;;;;;36.00;23.20;;;;;;;-0.41;79.11;99848.78;4114461;28;20207;-86
2022/01/27 03:50:03;;;;;;;31.10;22.37;;;;;;;-0.33;78.93;99840.81;4114618;28;20209;-86
2022/01/27 03:52:05;;;;;;;36.93;23.77;;;;;;;-0.45;78.97;99852.75;4127422;28;20284;-85
2022/01/27 03:54:07;;;;;;;35.67;23.17;;;;;;;-0.32;79.10;99847.91;4128820;28;20218;-85
2022/01/27 03:56:08;;;;;;;39.40;21.27;;;;;;;-0.39;78.98;99846.78;4141088;28;20220;-85
2022/01/27 03:58:12;;;;;;;36.83;25.90;;;;;;;-0.43;79.01;99838.19;4125360;28;20701;-84
2022/01/27 04:00:14;;;;;;;33.07;23.43;;;;;;;-0.49;79.09;99843.31;4124552;28;20216;-84
2022/01/27 04:02:16;;;;;;;41.07;23.80;;;;;;;-0.39;79.57;99828.84;4140466;28;20233;-85
2022/01/27 04:04:19;;;;;;;32.70;21.47;;;;;;;-0.33;79.08;99832.75;4124253;28;20209;-84
2022/01/27 04:06:30;;;;;;;38.53;22.30;;;;;;;-0.35;78.97;99832.06;4103509;28;20218;-84
2022/01/27 04:08:37;;;;;;;39.50;23.20;;;;;;;-0.23;78.78;99841.59;4108362;28;20258;-85
2022/01/27 04:10:39;;;;;;;35.53;23.17;;;;;;;-0.19;78.93;99837.63;4124541;28;20293;-84
2022/01/27 04:12:41;;;;;;;32.90;23.07;;;;;;;-0.35;78.59;99837.44;4108539;28;20254;-84
2022/01/27 04:14:43;;;;;;;25.53;19.10;;;;;;;-0.29;78.63;99831.47;4113781;28;20209;-85
2022/01/27 04:16:45;;;;;;;24.83;18.97;;;;;;;-0.40;79.05;99819.06;4128826;28;20607;-84
2022/01/27 04:18:47;;;;;;;39.10;23.23;;;;;;;-0.47;79.53;99826.03;4110115;28;20289;-84
2022/01/27 04:20:58;;;;;;;32.47;22.30;;;;;;;-0.44;79.26;99827.56;4126914;28;20265;-84
2022/01/27 04:22:59;;;;;;;34.27;22.33;;;;;;;-0.43;79.54;99826.56;4112135;28;20755;-84
2022/01/27 04:25:01;;;;;;;37.87;20.77;;;;;;;-0.47;79.57;99827.88;4127138;28;20210;-85
2022/01/27 04:27:07;;;;;;;29.57;20.57;;;;;;;-0.51;79.65;99834.53;4129701;28;20636;-85
2022/01/27 04:29:09;;;;;;;31.70;20.63;;;;;;;-0.40;79.50;99834.34;4124473;28;20324;-85
2022/01/27 04:31:26;;;;;;;28.47;19.13;;;;;;;-0.38;79.04;99826.97;4111654;28;20235;-86
2022/01/27 04:33:31;;;;;;;26.57;19.60;;;;;;;-0.27;79.05;99840.22;4124905;28;20261;-86
2022/01/27 04:35:36;;;;;;;33.87;21.43;;;;;;;-0.28;79.01;99834.00;4140994;28;20213;-86
2022/01/27 04:37:42;;;;;;;26.30;19.93;;;;;;;-0.14;78.89;99838.88;4141660;28;20648;-85
2022/01/27 04:39:56;;;;;;;25.67;19.13;;;;;;;-0.13;78.55;99833.34;4108717;28;20214;-84
2022/01/27 04:42:06;;;;;;;27.53;20.70;;;;;;;-0.22;78.39;99827.19;4123833;28;20203;-88
2022/01/27 04:44:22;;;;;;;32.23;20.90;;;;;;;-0.14;79.03;99846.94;4149487;28;20205;-88
2022/01/27 04:46:41;;;;;;;24.90;20.10;;;;;;;-0.16;78.51;99842.72;4136313;28;20198;-87
2022/01/27 04:48:48;;;;;;;31.57;21.70;;;;;;;-0.09;78.26;99833.06;4133639;28;20214;-88
2022/01/27 04:50:51;;;;;;;24.77;18.07;;;;;;;-0.05;77.94;99836.13;4147125;28;20232;-88
2022/01/27 04:52:55;;;;;;;24.50;17.33;;;;;;;-0.14;78.47;99840.72;4150746;28;20429;-88
2022/01/27 04:55:07;;;;;;;24.17;18.10;;;;;;;-0.22;78.62;99827.19;4160387;28;20483;-84
2022/01/27 04:57:08;;;;;;;39.37;21.70;;;;;;;-0.23;78.55;99841.59;4144944;28;20186;-87
2022/01/27 04:59:22;;;;;;;28.90;21.00;;;;;;;-0.17;79.03;99854.47;4141677;28;20225;-86
2022/01/27 05:01:33;;;;;;;26.83;19.80;;;;;;;-0.15;79.06;99844.41;4124594;28;20233;-86
2022/01/27 05:03:53;;;;;;;32.23;18.30;;;;;;;-0.12;78.82;99840.41;4113043;28;20213;-83
2022/01/27 05:05:57;;;;;;;38.37;20.60;;;;;;;-0.14;78.55;99851.50;4126620;28;20201;-84
2022/01/27 05:08:01;;;;;;;31.13;21.40;;;;;;;-0.19;79.00;99843.88;4141583;28;20710;-84
2022/01/27 05:10:10;;;;;;;28.90;18.70;;;;;;;-0.11;78.89;99852.03;4109584;28;20203;-84
2022/01/27 05:12:20;;;;;;;24.27;20.33;;;;;;;-0.13;78.83;99849.47;4123598;28;20229;-84
2022/01/27 05:14:25;;;;;;;31.20;19.30;;;;;;;-0.13;78.79;99859.41;4128213;28;20685;-85
2022/01/27 05:16:27;;;;;;;30.80;20.47;;;;;;;-0.15;78.92;99852.50;4140278;28;20202;-86
2022/01/27 05:18:31;;;;;;;29.17;20.27;;;;;;;-0.07;78.96;99853.41;4122221;28;20206;-86
2022/01/27 05:20:33;;;;;;;23.90;18.57;;;;;;;-0.09;78.64;99846.50;4139956;28;20228;-86
2022/01/27 05:22:34;;;;;;;25.87;19.10;;;;;;;-0.04;78.85;99848.56;4126149;28;20254;-85
2022/01/27 05:24:36;;;;;;;23.50;18.80;;;;;;;-0.03;78.33;99850.28;4139908;28;20198;-85
2022/01/27 05:26:38;;;;;;;23.17;17.67;;;;;;;-0.08;78.59;99846.34;4130843;28;20210;-85
2022/01/27 05:28:39;;;;;;;28.73;17.87;;;;;;;-0.04;78.28;99843.19;4128617;28;20272;-84
2022/01/27 05:30:41;;;;;;;25.47;17.67;;;;;;;-0.05;78.75;99840.69;4128589;28;20225;-87
2022/01/27 05:32:45;;;;;;;28.27;17.97;;;;;;;-0.07;78.69;99835.44;4123995;28;20224;-84
2022/01/27 05:34:47;;;;;;;20.27;17.50;;;;;;;-0.04;78.49;99842.38;4142974;28;21523;-84
2022/01/27 05:36:48;;;;;;;19.77;16.50;;;;;;;0.01;78.59;99840.06;4125652;28;20213;-84
2022/01/27 05:38:50;;;;;;;21.37;15.17;;;;;;;0.05;78.72;99836.06;4126056;28;20202;-83
2022/01/27 05:40:52;;;;;;;22.37;15.53;;;;;;;0.05;78.58;99839.63;4127483;28;20245;-84
2022/01/27 05:42:53;;;;;;;20.40;14.50;;;;;;;0.12;77.90;99846.09;4145595;28;20261;-85
2022/01/27 05:44:55;;;;;;;18.87;15.83;;;;;;;0.03;78.41;99838.94;4143514;28;20800;-84
2022/01/27 05:46:57;;;;;;;17.03;15.33;;;;;;;0.09;78.17;99840.97;4139324;28;20212;-85
2022/01/27 05:48:59;;;;;;;21.17;15.23;;;;;;;0.05;78.49;99823.47;4126015;28;20584;-85
2022/01/27 05:51:03;;;;;;;19.97;15.17;;;;;;;0.07;78.38;99831.41;4138748;28;20656;-85
2022/01/27 05:53:05;;;;;;;18.23;15.97;;;;;;;0.08;78.29;99825.00;4105773;28;20238;-85
2022/01/27 05:55:07;;;;;;;17.80;16.00;;;;;;;-0.08;78.88;99831.06;4121784;28;20222;-85
2022/01/27 05:57:08;;;;;;;22.30;17.30;;;;;;;0.11;78.42;99814.78;4123995;28;20206;-85
2022/01/27 05:59:10;;;;;;;17.27;15.47;;;;;;;0.04;78.51;99810.16;4125136;28;20214;-83
2022/01/27 06:01:12;;;;;;;18.53;15.07;;;;;;;0.01;78.61;99808.63;4125763;28;20233;-85
2022/01/27 06:03:14;;;;;;;17.80;15.40;;;;;;;0.00;78.78;99800.72;4110766;28;20202;-84
2022/01/27 06:05:15;;;;;;;18.40;14.67;;;;;;;-0.12;79.31;99808.13;4138286;28;20213;-83
2022/01/27 06:07:17;;;;;;;16.93;14.40;;;;;;;-0.05;79.17;99814.59;4111699;28;20290;-85
2022/01/27 06:09:19;;;;;;;18.20;14.23;;;;;;;-0.09;79.19;99827.69;4136406;28;20229;-84
2022/01/27 06:11:20;;;;;;;16.83;15.27;;;;;;;-0.09;79.31;99827.69;4128058;28;20225;-84
2022/01/27 06:13:23;;;;;;;15.57;13.93;;;;;;;0.01;79.01;99835.53;4129985;28;20230;-85
2022/01/27 06:15:26;;;;;;;16.60;14.83;;;;;;;-0.06;78.95;99820.97;4120781;28;20297;-84
2022/01/27 06:17:29;;;;;;;22.13;16.07;;;;;;;-0.01;78.96;99829.44;4119634;28;20758;-84
2022/01/27 06:19:31;;;;;;;15.80;14.20;;;;;;;0.11;78.57;99830.94;4106368;28;20278;-83
2022/01/27 06:21:35;;;;;;;18.93;13.90;;;;;;;0.07;78.77;99818.78;4121776;28;20726;-85
2022/01/27 06:23:36;;;;;;;20.60;15.60;;;;;;;0.11;78.90;99819.31;4120668;28;20285;-84
2022/01/27 06:25:40;;;;;;;16.77;14.07;;;;;;;0.18;78.90;99820.41;4124349;28;20527;-83
2022/01/27 06:27:42;;;;;;;25.83;16.77;;;;;;;0.03;78.76;99813.84;4120030;28;20281;-84
2022/01/27 06:29:44;;;;;;;18.27;14.53;;;;;;;0.13;78.86;99818.16;4120343;28;20207;-83
2022/01/27 06:31:47;;;;;;;19.57;14.97;;;;;;;0.01;79.05;99823.94;4124616;28;20244;-83
2022/01/27 06:33:54;;;;;;;17.27;14.93;;;;;;;0.10;78.90;99818.50;4124294;28;20194;-84
2022/01/27 06:35:56;;;;;;;20.23;14.33;;;;;;;-0.03;79.19;99809.94;4126364;28;20238;-84
2022/01/27 06:37:59;;;;;;;15.67;14.00;;;;;;;0.06;79.47;99805.47;4127747;28;20203;-84
2022/01/27 06:40:01;;;;;;;17.07;15.43;;;;;;;0.06;79.09;99811.72;4124790;28;20211;-87
2022/01/27 06:42:05;;;;;;;17.20;15.50;;;;;;;0.10;78.98;99801.47;4127723;28;20244;-86
2022/01/27 06:44:08;;;;;;;22.70;15.83;;;;;;;0.02;79.22;99802.22;4110555;28;20290;-84
2022/01/27 06:46:10;;;;;;;19.07;16.43;;;;;;;0.04;79.22;99804.78;4125580;28;20206;-83
2022/01/27 06:48:11;;;;;;;18.30;14.50;;;;;;;0.01;79.39;99797.03;4107933;28;20281;-84
2022/01/27 06:50:13;;;;;;;26.60;15.17;;;;;;;-0.02;79.67;99800.88;4126156;28;20213;-84
2022/01/27 06:52:15;;;;;;;19.90;14.60;;;;;;;-0.01;79.80;99809.75;4114415;28;20308;-85
2022/01/27 06:54:17;;;;;;;21.87;16.13;;;;;;;0.12;79.46;99805.72;4129166;28;20216;-84
2022/01/27 06:56:19;;;;;;;23.43;17.70;;;;;;;0.13;79.50;99796.66;4130994;28;20224;-83
2022/01/27 06:58:20;;;;;;;18.30;15.13;;;;;;;0.00;79.43;99796.16;4128544;28;20206;-84
2022/01/27 07:00:22;;;;;;;28.93;16.53;;;;;;;0.03;79.79;99795.88;4129006;28;20690;-83
2022/01/27 07:02:23;;;;;;;20.77;15.70;;;;;;;0.11;79.44;99798.66;4109986;28;20245;-84
2022/01/27 07:04:25;;;;;;;19.33;16.97;;;;;;;0.03;79.50;99795.88;4128737;28;20207;-83
2022/01/27 07:06:26;;;;;;;18.83;16.30;;;;;;;0.05;79.76;99793.88;4125369;28;20214;-83
2022/01/27 07:08:28;;;;;;;17.63;15.93;;;;;;;0.19;79.11;99790.66;4134667;28;20271;-84
2022/01/27 07:10:29;;;;;;;17.70;15.90;;;;;;;0.20;79.50;99791.50;4127579;28;20218;-85
2022/01/27 07:12:31;;;;;;;18.93;16.27;;;;;;;0.16;79.33;99806.25;4126206;28;20218;-85
2022/01/27 07:14:33;;;;;;;16.17;14.53;;;;;;;0.18;79.28;99810.50;4124991;28;20206;-85
2022/01/27 07:16:35;;;;;;;20.00;17.83;;;;;;;0.07;79.43;99799.94;4126635;28;20238;-86
2022/01/27 07:18:37;;;;;;;18.87;16.70;;;;;;;0.18;78.99;99810.50;4124780;28;20297;-83
2022/01/27 07:20:38;;;;;;;20.17;16.70;;;;;;;0.20;78.93;99811.19;4124660;28;20284;-84
2022/01/27 07:22:40;;;;;;;15.77;14.17;;;;;;;0.21;78.76;99810.16;4130372;28;20198;-84
2022/01/27 07:24:41;;;;;;;21.13;15.37;;;;;;;0.27;78.54;99812.25;4127467;28;20206;-84
2022/01/27 07:26:43;;;;;;;17.20;14.73;;;;;;;0.30;78.42;99809.28;4127277;28;20226;-84
2022/01/27 07:28:44;;;;;;;20.93;16.63;;;;;;;0.22;78.84;99808.34;4106206;28;20203;-85
2022/01/27 07:30:46;;;;;;;20.50;16.93;;;;;;;0.23;78.61;99808.19;4111641;28;20248;-85
2022/01/27 07:32:48;;;;;;;20.40;15.83;;;;;;;0.20;78.80;99792.34;4111595;28;20228;-85
2022/01/27 07:34:49;;;;;;;18.83;16.67;;;;;;;0.15;79.18;99800.00;4111397;28;20215;-85
2022/01/27 07:37:05;;;;;;;;;;;;;;;;;;;;;
2022/01/27 07:39:13;;;;;;;18.33;14.73;;;;;;;0.19;78.85;99793.34;4138245;28;20253;-88
2022/01/27 07:41:17;;;;;;;16.77;14.93;;;;;;;0.25;78.88;99795.41;4144887;28;20227;-87
2022/01/27 07:43:18;;;;;;;20.87;15.23;;;;;;;0.31;78.60;99788.56;4157373;28;20202;-86
2022/01/27 07:45:20;;;;;;;19.20;15.20;;;;;;;0.22;79.23;99786.81;4155677;28;20221;-86
2022/01/27 07:47:21;;;;;;;19.00;16.00;;;;;;;0.30;78.82;99792.25;4145494;28;20213;-85
2022/01/27 07:49:23;;;;;;;18.27;15.93;;;;;;;0.25;79.26;99800.81;4134129;28;20213;-84
2022/01/27 07:51:26;;;;;;;21.03;15.10;;;;;;;0.34;78.89;99789.09;4114733;28;20658;-85
2022/01/27 07:53:30;;;;;;;22.13;15.47;;;;;;;0.42;78.70;99791.88;4128664;28;20226;-85
2022/01/27 07:55:51;;;;;;;19.87;15.47;;;;;;;0.27;78.65;99793.41;4124838;28;20242;-86
2022/01/27 07:57:54;;;;;;;16.50;14.03;;;;;;;0.27;79.06;99782.66;4127402;28;20297;-85
2022/01/27 07:59:56;;;;;;;20.27;16.37;;;;;;;0.18;79.15;99786.28;4125796;28;20663;-86
2022/01/27 08:01:58;;;;;;;20.63;17.63;;;;;;;0.27;78.77;99788.03;4124243;28;20725;-85
2022/01/27 08:03:59;;;;;;;24.53;15.10;;;;;;;0.31;78.72;99783.19;4108591;28;20214;-86
2022/01/27 08:06:02;;;;;;;20.27;16.10;;;;;;;0.20;78.69;99792.34;4111634;28;20687;-85
2022/01/27 08:08:03;;;;;;;23.97;15.97;;;;;;;0.14;78.97;99782.19;4143302;28;20297;-86
2022/01/27 08:10:08;;;;;;;27.43;16.67;;;;;;;0.12;78.72;99789.56;4130247;28;20221;-86
2022/01/27 08:12:10;;;;;;;24.17;17.23;;;;;;;0.00;79.59;99785.41;4134179;28;20232;-85
2022/01/27 08:14:12;;;;;;;25.13;16.83;;;;;;;-0.09;79.25;99792.72;4126058;28;20314;-86
2022/01/27 08:16:13;;;;;;;27.80;16.87;;;;;;;-0.01;79.31;99791.78;4115329;28;20211;-85
2022/01/27 08:18:20;;;;;;;21.43;16.33;;;;;;;-0.02;79.20;99786.56;4131499;28;20265;-86
2022/01/27 08:20:22;;;;;;;21.30;15.03;;;;;;;0.03;79.20;99792.34;4113111;28;20214;-85
2022/01/27 08:22:26;;;;;;;23.77;15.77;;;;;;;0.01;79.10;99791.66;4134282;28;20222;-86
2022/01/27 08:24:36;;;;;;;22.30;18.17;;;;;;;-0.05;79.31;99774.25;4131456;28;20206;-87
2022/01/27 08:26:41;;;;;;;18.10;12.43;;;;;;;-0.11;79.21;99776.72;4118329;28;20335;-85
2022/01/27 08:28:53;;;;;;;21.73;17.67;;;;;;;-0.06;79.12;99777.94;4110827;28;20302;-86
2022/01/27 08:30:56;;;;;;;26.13;14.23;;;;;;;-0.13;79.66;99767.13;4131965;28;20240;-86
2022/01/27 08:33:00;;;;;;;24.83;15.20;;;;;;;-0.05;78.99;99771.56;4141165;28;20294;-88
2022/01/27 08:35:02;;;;;;;22.43;14.13;;;;;;;-0.01;79.09;99772.97;4128188;28;20284;-86
2022/01/27 08:37:12;;;;;;;25.33;16.60;;;;;;;-0.12;79.36;99766.97;4131624;28;20216;-86
2022/01/27 08:39:14;;;;;;;22.27;14.47;;;;;;;-0.21;79.13;99770.53;4141018;28;20220;-85
2022/01/27 08:41:15;;;;;;;22.37;14.53;;;;;;;-0.15;79.47;99772.63;4111642;28;20262;-85
2022/01/27 08:43:17;;;;;;;19.40;15.13;;;;;;;-0.15;79.10;99779.88;4127708;28;20552;-85
2022/01/27 08:45:20;;;;;;;19.60;15.23;;;;;;;-0.16;79.64;99776.31;4116154;28;20265;-86
2022/01/27 08:47:27;;;;;;;26.80;14.30;;;;;;;-0.09;79.52;99773.88;4129331;28;20209;-84
2022/01/27 08:49:30;;;;;;;19.90;17.27;;;;;;;-0.26;79.65;99766.63;4144518;28;20200;-86
2022/01/27 08:51:32;;;;;;;20.67;13.23;;;;;;;-0.28;79.49;99758.72;4116055;28;20245;-87
2022/01/27 08:53:36;;;;;;;22.47;14.33;;;;;;;-0.30;79.79;99760.72;4145401;28;20229;-86
2022/01/27 08:55:39;;;;;;;18.57;15.87;;;;;;;-0.22;79.69;99765.34;4135531;28;20699;-85
2022/01/27 08:57:40;;;;;;;20.60;13.30;;;;;;;-0.27;79.18;99760.41;4145086;28;20304;-86
2022/01/27 08:59:42;;;;;;;34.83;15.53;;;;;;;-0.18;79.64;99755.97;4108963;28;20237;-86
2022/01/27 09:01:44;;;;;;;22.77;15.27;;;;;;;-0.20;79.76;99769.53;4125703;28;20238;-85
2022/01/27 09:03:46;;;;;;;14.80;12.30;;;;;;;-0.25;79.47;99762.94;4111261;28;20225;-86
2022/01/27 09:05:47;;;;;;;21.30;13.60;;;;;;;-0.15;79.45;99763.75;4115198;28;20262;-86
2022/01/27 09:07:56;;;;;;;19.60;13.63;;;;;;;-0.21;79.19;99769.72;4125425;28;20359;-85
2022/01/27 09:10:01;;;;;;;16.67;14.17;;;;;;;-0.25;79.79;99773.69;4128803;28;20679;-86
2022/01/27 09:12:02;;;;;;;14.73;10.73;;;;;;;-0.17;79.50;99771.09;4126435;28;20286;-87
2022/01/27 09:14:04;;;;;;;21.87;14.13;;;;;;;-0.21;79.01;99769.72;4108534;28;20233;-87
2022/01/27 09:16:06;;;;;;;15.83;11.30;;;;;;;-0.23;79.18;99769.00;4129797;28;20273;-87
2022/01/27 09:18:08;;;;;;;16.20;12.53;;;;;;;-0.26;79.28;99766.63;4125823;28;20765;-87
2022/01/27 09:20:10;;;;;;;18.63;12.93;;;;;;;-0.14;79.29;99765.41;4125299;28;20672;-87
2022/01/27 09:22:18;;;;;;;14.37;10.77;;;;;;;-0.27;79.09;99770.31;4127487;28;21208;-87
2022/01/27 09:24:27;;;;;;;14.57;11.77;;;;;;;-0.28;79.35;99765.94;4130222;28;20235;-88
2022/01/27 09:28:40;;;;;;;14.20;11.37;;;;;;;-0.17;79.07;99771.94;4130436;28;20271;-87
2022/01/27 09:30:43;;;;;;;21.23;12.17;;;;;;;-0.26;78.83;99767.50;4113935;28;20206;-87
2022/01/27 09:32:47;;;;;;;17.25;11.40;;;;;;;-0.24;79.13;99775.38;4143200;28;20205;-87
2022/01/27 09:34:49;;;;;;;21.63;12.40;;;;;;;-0.38;78.98;99774.06;4112417;28;20206;-85
2022/01/27 09:36:50;;;;;;;15.33;13.13;;;;;;;-0.32;79.17;99772.63;4143500;28;20931;-86
2022/01/27 09:38:52;;;;;;;20.30;11.97;;;;;;;-0.34;79.18;99780.81;4124480;28;20222;-86
2022/01/27 09:40:53;;;;;;;16.87;13.30;;;;;;;-0.36;79.34;99782.00;4128847;28;20227;-86
2022/01/27 09:43:04;;;;;;;14.80;11.77;;;;;;;-0.32;79.43;99783.38;4132359;28;20213;-87
2022/01/27 09:45:08;;;;;;;19.67;12.63;;;;;;;-0.32;79.24;99791.44;4142446;28;20209;-86
2022/01/27 09:47:14;;;;;;;20.97;13.27;;;;;;;-0.23;78.74;99795.91;4120569;28;20631;-87
2022/01/27 09:49:19;;;;;;;13.90;10.90;;;;;;;-0.27;79.05;99781.06;4124156;28;20206;-86
2022/01/27 09:51:27;;;;;;;19.87;11.93;;;;;;;-0.25;78.93;99789.81;4128020;28;20309;-87
2022/01/27 09:53:30;;;;;;;19.17;11.93;;;;;;;-0.22;79.13;99789.53;4125165;28;20289;-86
2022/01/27 09:55:32;;;;;;;15.07;12.33;;;;;;;-0.16;79.10;99794.31;4142951;28;20221;-88
2022/01/27 09:57:39;;;;;;;14.97;11.60;;;;;;;-0.13;78.75;99804.75;4128464;28;20828;-86
2022/01/27 09:59:47;;;;;;;13.27;11.97;;;;;;;-0.26;78.67;99788.16;4116020;28;20273;-87
2022/01/27 10:01:57;;;;;;;15.70;12.53;;;;;;;-0.23;78.83;99787.81;4115108;28;20226;-86
2022/01/27 10:04:06;;;;;;;18.60;10.87;;;;;;;-0.22;78.67;99784.16;4116113;28;20203;-86
2022/01/27 10:06:15;;;;;;;24.37;12.83;;;;;;;-0.30;78.86;99779.53;4145325;28;20744;-89
2022/01/27 10:08:19;;;;;;;19.37;14.50;;;;;;;-0.26;78.72;99783.63;4145207;28;20574;-88
2022/01/27 10:10:21;;;;;;;22.33;13.83;;;;;;;-0.29;78.83;99783.91;4115990;28;20203;-87
2022/01/27 10:12:42;;;;;;;17.20;11.50;;;;;;;-0.24;79.02;99770.88;4117626;28;20261;-86
2022/01/27 10:14:56;;;;;;;12.13;10.53;;;;;;;-0.16;78.61;99764.75;4118442;28;20230;-87